createdAt,value
2023-02-16T00:02:17.524Z,72.57
2023-02-16T00:09:19.285Z,72.43
2023-02-16T00:16:22.142Z,72.64
2023-02-16T00:23:23.708Z,73.49
2023-02-16T00:30:25.318Z,74.55
2023-02-16T00:37:27.500Z,73.27
2023-02-16T00:44:44.956Z,73.35
2023-02-16T00:51:46.679Z,74.35
2023-02-16T00:58:50.259Z,72.83
2023-02-16T01:06:11.810Z,72.83
2023-02-16T01:13:13.392Z,74.11
2023-02-16T01:20:22.566Z,73.38
2023-02-16T01:27:24.077Z,73.87
2023-02-16T01:34:25.697Z,74.00
2023-02-16T01:41:51.788Z,74.01
2023-02-16T01:48:53.354Z,74.62
2023-02-16T01:56:00.564Z,73.34
2023-02-16T02:03:20.522Z,73.99
2023-02-16T02:10:24.419Z,74.05
2023-02-16T02:17:26.054Z,73.39
2023-02-16T02:25:04.101Z,73.60
2023-02-16T02:32:20.688Z,73.27
2023-02-16T02:40:00.649Z,74.07
2023-02-16T02:47:02.194Z,73.52
2023-02-16T02:54:40.563Z,74.01
2023-02-16T03:01:48.899Z,74.47
2023-02-16T03:08:55.312Z,74.27
2023-02-16T03:15:57.006Z,73.97
2023-02-16T03:23:17.577Z,74.25
2023-02-16T03:30:19.266Z,74.33
2023-02-16T03:37:20.965Z,74.71
2023-02-16T03:44:22.640Z,74.14
2023-02-16T03:51:24.206Z,74.23
2023-02-16T03:58:25.822Z,73.87
2023-02-16T04:05:27.445Z,73.45
2023-02-16T04:12:37.992Z,73.54
2023-02-16T04:19:39.567Z,73.06
2023-02-16T04:26:41.092Z,73.72
2023-02-16T04:33:42.627Z,72.89
2023-02-16T04:40:44.148Z,73.38
2023-02-16T04:47:45.699Z,72.43
2023-02-16T04:54:47.306Z,72.22
2023-02-16T05:01:49.313Z,72.38
2023-02-16T05:08:50.871Z,72.92
2023-02-16T05:15:52.432Z,73.08
2023-02-16T05:22:53.986Z,71.39
2023-02-16T05:29:55.888Z,71.87
2023-02-16T05:36:57.495Z,71.59
2023-02-16T05:44:00.246Z,72.13
2023-02-16T05:51:02.271Z,72.69
2023-02-16T05:58:04.118Z,71.45
2023-02-16T06:05:05.989Z,72.54
2023-02-16T06:12:07.783Z,70.07
2023-02-16T06:19:09.505Z,70.19
2023-02-16T06:26:11.023Z,70.02
2023-02-16T06:33:12.574Z,71.31
2023-02-16T06:40:14.864Z,71.22
2023-02-16T06:47:16.385Z,70.34
2023-02-16T06:54:18.070Z,69.64
2023-02-16T07:01:23.002Z,69.24
2023-02-16T07:08:24.778Z,70.94
2023-02-16T07:15:26.382Z,69.36
2023-02-16T07:22:29.691Z,70.36
2023-02-16T07:29:31.253Z,69.84
2023-02-16T07:36:32.858Z,67.91
2023-02-16T07:43:37.588Z,68.87
2023-02-16T07:50:39.158Z,68.39
2023-02-16T07:57:40.690Z,67.91
2023-02-16T08:04:42.291Z,67.83
2023-02-16T08:11:43.960Z,63.30
2023-02-16T08:18:45.492Z,63.60
2023-02-16T08:25:47.019Z,61.49
2023-02-16T08:32:50.800Z,62.55
2023-02-16T08:39:53.735Z,60.63
2023-02-16T08:46:56.137Z,60.14
2023-02-16T08:53:58.754Z,58.69
2023-02-16T09:01:04.205Z,57.50
2023-02-16T09:08:05.799Z,58.06
2023-02-16T09:15:08.489Z,54.94
2023-02-16T09:22:10.641Z,52.26
2023-02-16T09:29:12.412Z,50.27
2023-02-16T09:36:14.058Z,48.59
2023-02-16T09:43:30.841Z,47.29
2023-02-16T09:50:52.446Z,45.53
2023-02-16T09:58:08.049Z,43.79
2023-02-16T10:05:13.202Z,43.05
2023-02-16T10:12:21.070Z,44.19
2023-02-16T10:19:26.240Z,44.99
2023-02-16T10:26:38.599Z,45.26
2023-02-16T10:33:48.821Z,43.36
2023-02-16T10:40:59.925Z,44.09
2023-02-16T10:48:01.834Z,43.14
2023-02-16T10:55:03.441Z,41.78
2023-02-16T11:02:27.087Z,40.51
2023-02-16T11:09:28.796Z,40.54
2023-02-16T11:16:30.409Z,40.19
2023-02-16T11:23:36.212Z,39.88
2023-02-16T11:30:41.323Z,40.90
2023-02-16T11:37:42.905Z,40.91
2023-02-16T11:44:46.900Z,42.00
2023-02-16T11:51:48.436Z,42.04
2023-02-16T11:59:07.888Z,42.21
2023-02-16T12:06:34.700Z,42.35
2023-02-16T12:13:51.038Z,42.99
2023-02-16T12:21:11.849Z,42.96
2023-02-16T12:28:28.352Z,43.12
2023-02-16T12:35:38.843Z,43.44
2023-02-16T12:42:52.624Z,43.33
2023-02-16T12:50:02.067Z,43.08
2023-02-16T12:57:07.076Z,43.31
2023-02-16T13:04:33.747Z,44.32
2023-02-16T13:11:40.838Z,44.40
2023-02-16T13:18:42.687Z,43.79
2023-02-16T13:26:21.821Z,44.75
2023-02-16T13:33:27.520Z,44.50
2023-02-16T13:40:53.749Z,43.93
2023-02-16T13:47:55.538Z,42.87
2023-02-16T13:54:58.426Z,44.22
2023-02-16T14:01:59.971Z,44.96
2023-02-16T14:09:10.961Z,44.68
2023-02-16T14:16:33.073Z,45.46
2023-02-16T14:23:34.693Z,44.90
2023-02-16T14:30:39.258Z,44.63
2023-02-16T14:38:03.563Z,44.01
2023-02-16T14:45:22.613Z,44.47
2023-02-16T14:52:42.816Z,44.68
2023-02-16T14:59:54.000Z,44.94
2023-02-16T15:06:55.653Z,45.10
2023-02-16T15:14:05.367Z,45.84
2023-02-16T15:21:07.145Z,45.78
2023-02-16T15:28:20.363Z,45.42
2023-02-16T15:35:29.773Z,45.95
2023-02-16T15:42:31.761Z,46.06
2023-02-16T15:49:34.750Z,46.50
2023-02-16T15:56:40.379Z,46.24
2023-02-16T16:03:46.407Z,47.43
2023-02-16T16:10:47.930Z,46.73
2023-02-16T16:17:50.668Z,47.59
2023-02-16T16:24:52.192Z,47.92
2023-02-16T16:31:53.984Z,48.01
2023-02-16T16:39:09.672Z,48.30
2023-02-16T16:46:23.768Z,47.46
2023-02-16T16:53:42.238Z,48.43
2023-02-16T17:00:43.866Z,49.17
2023-02-16T17:07:48.983Z,48.99
2023-02-16T17:14:50.757Z,49.17
2023-02-16T17:21:52.289Z,49.71
2023-02-16T17:28:53.893Z,50.69
2023-02-16T17:35:55.446Z,50.88
2023-02-16T17:42:57.004Z,51.00
2023-02-16T17:49:58.582Z,50.82
2023-02-16T17:57:00.158Z,49.90
2023-02-16T18:04:03.191Z,50.19
2023-02-16T18:11:05.066Z,49.91
2023-02-16T18:18:06.604Z,50.16
2023-02-16T18:25:08.277Z,50.95
2023-02-16T18:32:10.103Z,50.83
2023-02-16T18:39:11.679Z,51.46
2023-02-16T18:46:13.218Z,51.31
2023-02-16T18:53:14.785Z,50.98
2023-02-16T19:00:17.042Z,51.08
2023-02-16T19:07:19.139Z,51.28
2023-02-16T19:14:20.896Z,51.21
2023-02-16T19:21:22.458Z,51.08
2023-02-16T19:28:24.069Z,51.30
2023-02-16T19:35:25.612Z,51.56
2023-02-16T19:42:27.164Z,52.19
2023-02-16T19:49:29.107Z,52.54
2023-02-16T19:56:30.696Z,52.15
2023-02-16T20:03:32.273Z,52.46
2023-02-16T20:10:34.459Z,52.56
2023-02-16T20:17:36.140Z,52.06
2023-02-16T20:24:38.049Z,52.46
2023-02-16T20:31:42.410Z,52.73
2023-02-16T20:38:44.143Z,52.92
2023-02-16T20:45:45.715Z,52.66
2023-02-16T20:52:47.282Z,53.79
2023-02-16T20:59:48.904Z,54.42
2023-02-16T21:06:50.469Z,56.18
2023-02-16T21:13:51.995Z,56.40
2023-02-16T21:20:53.537Z,56.53
2023-02-16T21:27:55.129Z,57.09
2023-02-16T21:34:56.670Z,57.46
2023-02-16T21:41:58.223Z,56.77
2023-02-16T21:48:59.896Z,56.31
2023-02-16T21:56:17.990Z,57.40
2023-02-16T22:03:20.480Z,58.34
2023-02-16T22:10:22.010Z,59.50
2023-02-16T22:17:23.524Z,58.53
2023-02-16T22:24:25.067Z,59.35
2023-02-16T22:31:27.362Z,59.71
2023-02-16T22:38:29.134Z,59.61
2023-02-16T22:45:30.815Z,60.55
2023-02-16T22:52:32.505Z,60.50
2023-02-16T22:59:34.097Z,60.47
2023-02-16T23:06:36.529Z,61.09
2023-02-16T23:13:38.272Z,61.43
2023-02-16T23:20:39.820Z,61.66
2023-02-16T23:27:41.375Z,61.87
2023-02-16T23:34:44.022Z,62.30
2023-02-16T23:41:45.602Z,62.73
2023-02-16T23:48:47.141Z,62.79
2023-02-16T23:56:04.778Z,62.56
